Terminal Aerodrome Forecast
Issued by NWS Green Bay, WI

Home | Current Version | Previous Version | Text Only | Print | Product List | Glossary On
Versions: 1 2 3 4 5 6 7 8 9 10 11 12 13 14 15 16 17 18 19 20 21 22 23 24 25 26 27 28 29 30 31 32 33 34
000
FTUS43 KGRB 251139
TAFGRB
TAF
KGRB 251139Z 2512/2612 04017G22KT P6SM SCT007 OVC012
      TEMPO 2512/2515 BKN007
     FM252000 05017G25KT 6SM -RA OVC010
     FM252300 05015G22KT 3SM -RA BR OVC008
     FM260400 06011KT 2SM -RA BR OVC006
     FM260700 06010KT 2SM -RA BR OVC005
     FM260800 05009KT 1 1/2SM -RA BR OVC003=

USA.gov is the U.S. government's official web portal to all federal, state and local government web resources and services.